sensor_id;sensor_type;location;lat;lon;timestamp;P1;durP1;ratioP1;P2;durP2;ratioP2
10801;SDS011;5453;50.852;7.102;2022-07-06T00:00:48;2.05;;;1.15;;
10801;SDS011;5453;50.852;7.102;2022-07-06T00:03:20;2.78;;;1.17;;
10801;SDS011;5453;50.852;7.102;2022-07-06T00:05:52;1.15;;;1.00;;
10801;SDS011;5453;50.852;7.102;2022-07-06T00:08:25;1.85;;;0.98;;
10801;SDS011;5453;50.852;7.102;2022-07-06T00:10:57;1.65;;;1.00;;
10801;SDS011;5453;50.852;7.102;2022-07-06T00:13:30;2.05;;;1.27;;
10801;SDS011;5453;50.852;7.102;2022-07-06T00:16:03;1.35;;;1.00;;
10801;SDS011;5453;50.852;7.102;2022-07-06T00:18:36;1.15;;;1.00;;
10801;SDS011;5453;50.852;7.102;2022-07-06T00:21:08;2.05;;;1.10;;
10801;SDS011;5453;50.852;7.102;2022-07-06T00:23:40;1.73;;;1.20;;
10801;SDS011;5453;50.852;7.102;2022-07-06T00:26:12;1.25;;;1.00;;
10801;SDS011;5453;50.852;7.102;2022-07-06T00:28:46;1.75;;;1.05;;
10801;SDS011;5453;50.852;7.102;2022-07-06T00:31:18;2.10;;;1.20;;
10801;SDS011;5453;50.852;7.102;2022-07-06T00:33:50;3.40;;;1.10;;
10801;SDS011;5453;50.852;7.102;2022-07-06T00:36:22;1.90;;;1.30;;
10801;SDS011;5453;50.852;7.102;2022-07-06T00:38:54;2.30;;;1.05;;
10801;SDS011;5453;50.852;7.102;2022-07-06T00:41:27;4.00;;;1.77;;
10801;SDS011;5453;50.852;7.102;2022-07-06T00:44:00;2.35;;;1.10;;
10801;SDS011;5453;50.852;7.102;2022-07-06T00:49:12;2.13;;;1.20;;
10801;SDS011;5453;50.852;7.102;2022-07-06T00:51:58;2.13;;;1.40;;
10801;SDS011;5453;50.852;7.102;2022-07-06T00:54:31;1.77;;;1.33;;
10801;SDS011;5453;50.852;7.102;2022-07-06T00:57:04;1.83;;;1.10;;
10801;SDS011;5453;50.852;7.102;2022-07-06T00:59:38;1.63;;;1.10;;
10801;SDS011;5453;50.852;7.102;2022-07-06T01:02:11;2.72;;;1.20;;
10801;SDS011;5453;50.852;7.102;2022-07-06T01:04:43;2.03;;;1.30;;
10801;SDS011;5453;50.852;7.102;2022-07-06T01:07:15;2.60;;;1.10;;
10801;SDS011;5453;50.852;7.102;2022-07-06T01:09:48;1.30;;;1.20;;
10801;SDS011;5453;50.852;7.102;2022-07-06T01:12:20;1.20;;;1.10;;
10801;SDS011;5453;50.852;7.102;2022-07-06T01:14:54;1.42;;;1.20;;
10801;SDS011;5453;50.852;7.102;2022-07-06T01:17:26;3.25;;;1.30;;
10801;SDS011;5453;50.852;7.102;2022-07-06T01:20:06;2.53;;;1.10;;
10801;SDS011;5453;50.852;7.102;2022-07-06T01:22:43;2.58;;;1.20;;
10801;SDS011;5453;50.852;7.102;2022-07-06T01:25:16;1.60;;;1.23;;
10801;SDS011;5453;50.852;7.102;2022-07-06T01:27:50;1.88;;;1.30;;
10801;SDS011;5453;50.852;7.102;2022-07-06T01:30:22;2.70;;;1.30;;
10801;SDS011;5453;50.852;7.102;2022-07-06T01:32:54;1.73;;;1.20;;
10801;SDS011;5453;50.852;7.102;2022-07-06T01:35:28;3.22;;;1.30;;
10801;SDS011;5453;50.852;7.102;2022-07-06T01:38:03;1.85;;;1.10;;
10801;SDS011;5453;50.852;7.102;2022-07-06T01:40:35;2.05;;;1.20;;
10801;SDS011;5453;50.852;7.102;2022-07-06T01:43:07;2.33;;;1.30;;
10801;SDS011;5453;50.852;7.102;2022-07-06T01:45:40;3.85;;;1.77;;
10801;SDS011;5453;50.852;7.102;2022-07-06T01:48:12;1.40;;;1.20;;
10801;SDS011;5453;50.852;7.102;2022-07-06T01:50:45;2.13;;;1.30;;
10801;SDS011;5453;50.852;7.102;2022-07-06T01:53:18;1.25;;;1.00;;
10801;SDS011;5453;50.852;7.102;2022-07-06T01:55:51;1.20;;;1.10;;
10801;SDS011;5453;50.852;7.102;2022-07-06T01:58:23;1.65;;;1.10;;
10801;SDS011;5453;50.852;7.102;2022-07-06T02:00:56;1.27;;;1.10;;
10801;SDS011;5453;50.852;7.102;2022-07-06T02:03:28;2.88;;;1.40;;
10801;SDS011;5453;50.852;7.102;2022-07-06T02:06:05;1.63;;;1.08;;
10801;SDS011;5453;50.852;7.102;2022-07-06T02:08:38;1.85;;;1.33;;
10801;SDS011;5453;50.852;7.102;2022-07-06T02:11:12;2.08;;;1.23;;
10801;SDS011;5453;50.852;7.102;2022-07-06T02:13:45;1.80;;;1.20;;
10801;SDS011;5453;50.852;7.102;2022-07-06T02:16:17;1.38;;;1.10;;
10801;SDS011;5453;50.852;7.102;2022-07-06T02:18:50;1.88;;;1.35;;
10801;SDS011;5453;50.852;7.102;2022-07-06T02:21:24;1.30;;;1.20;;
10801;SDS011;5453;50.852;7.102;2022-07-06T02:23:56;1.90;;;1.17;;
10801;SDS011;5453;50.852;7.102;2022-07-06T02:26:28;1.50;;;1.10;;
10801;SDS011;5453;50.852;7.102;2022-07-06T02:29:01;1.52;;;1.25;;
10801;SDS011;5453;50.852;7.102;2022-07-06T02:31:33;2.45;;;1.25;;
10801;SDS011;5453;50.852;7.102;2022-07-06T02:34:05;3.05;;;1.35;;
10801;SDS011;5453;50.852;7.102;2022-07-06T02:36:39;2.40;;;1.40;;
10801;SDS011;5453;50.852;7.102;2022-07-06T02:39:11;2.35;;;1.50;;
10801;SDS011;5453;50.852;7.102;2022-07-06T02:41:44;1.90;;;1.30;;
10801;SDS011;5453;50.852;7.102;2022-07-06T02:44:16;2.03;;;1.30;;
10801;SDS011;5453;50.852;7.102;2022-07-06T02:46:48;1.40;;;1.13;;
10801;SDS011;5453;50.852;7.102;2022-07-06T02:49:21;1.95;;;1.30;;
10801;SDS011;5453;50.852;7.102;2022-07-06T02:51:55;1.88;;;1.35;;
10801;SDS011;5453;50.852;7.102;2022-07-06T02:54:27;2.38;;;1.30;;
10801;SDS011;5453;50.852;7.102;2022-07-06T02:56:59;1.30;;;1.20;;
10801;SDS011;5453;50.852;7.102;2022-07-06T02:59:32;2.15;;;1.20;;
10801;SDS011;5453;50.852;7.102;2022-07-06T03:02:04;2.40;;;1.70;;
10801;SDS011;5453;50.852;7.102;2022-07-06T03:04:37;1.85;;;1.13;;
10801;SDS011;5453;50.852;7.102;2022-07-06T03:07:11;2.67;;;1.20;;
10801;SDS011;5453;50.852;7.102;2022-07-06T03:09:43;1.40;;;1.30;;
10801;SDS011;5453;50.852;7.102;2022-07-06T03:12:15;2.15;;;1.20;;
10801;SDS011;5453;50.852;7.102;2022-07-06T03:14:48;3.63;;;1.33;;
10801;SDS011;5453;50.852;7.102;2022-07-06T03:17:20;2.90;;;1.23;;
10801;SDS011;5453;50.852;7.102;2022-07-06T03:19:53;1.75;;;1.25;;
10801;SDS011;5453;50.852;7.102;2022-07-06T03:22:27;2.95;;;1.30;;
10801;SDS011;5453;50.852;7.102;2022-07-06T03:25:00;1.95;;;1.40;;
10801;SDS011;5453;50.852;7.102;2022-07-06T03:27:33;3.17;;;1.50;;
10801;SDS011;5453;50.852;7.102;2022-07-06T03:30:06;2.25;;;1.30;;
10801;SDS011;5453;50.852;7.102;2022-07-06T03:32:40;1.88;;;1.40;;
10801;SDS011;5453;50.852;7.102;2022-07-06T03:35:13;2.90;;;1.50;;
10801;SDS011;5453;50.852;7.102;2022-07-06T03:37:49;2.75;;;1.50;;
10801;SDS011;5453;50.852;7.102;2022-07-06T03:40:21;3.40;;;1.67;;
10801;SDS011;5453;50.852;7.102;2022-07-06T03:42:55;2.88;;;1.70;;
10801;SDS011;5453;50.852;7.102;2022-07-06T03:45:29;3.05;;;1.55;;
10801;SDS011;5453;50.852;7.102;2022-07-06T03:48:03;3.85;;;1.50;;
10801;SDS011;5453;50.852;7.102;2022-07-06T03:50:38;1.85;;;1.30;;
10801;SDS011;5453;50.852;7.102;2022-07-06T03:53:12;4.47;;;1.50;;
10801;SDS011;5453;50.852;7.102;2022-07-06T03:55:45;2.10;;;1.52;;
10801;SDS011;5453;50.852;7.102;2022-07-06T03:58:38;2.25;;;1.30;;
10801;SDS011;5453;50.852;7.102;2022-07-06T04:01:10;2.38;;;1.33;;
10801;SDS011;5453;50.852;7.102;2022-07-06T04:03:43;1.70;;;1.23;;
10801;SDS011;5453;50.852;7.102;2022-07-06T04:06:15;2.58;;;1.33;;
10801;SDS011;5453;50.852;7.102;2022-07-06T04:08:49;1.98;;;1.33;;
10801;SDS011;5453;50.852;7.102;2022-07-06T04:11:22;1.95;;;1.50;;
10801;SDS011;5453;50.852;7.102;2022-07-06T04:13:54;3.30;;;1.52;;
10801;SDS011;5453;50.852;7.102;2022-07-06T04:16:27;3.58;;;1.30;;
10801;SDS011;5453;50.852;7.102;2022-07-06T04:19:00;2.00;;;1.20;;
10801;SDS011;5453;50.852;7.102;2022-07-06T04:21:32;1.67;;;1.30;;
10801;SDS011;5453;50.852;7.102;2022-07-06T04:24:06;2.42;;;1.30;;
10801;SDS011;5453;50.852;7.102;2022-07-06T04:26:39;3.55;;;1.33;;
10801;SDS011;5453;50.852;7.102;2022-07-06T04:29:11;1.50;;;1.27;;
10801;SDS011;5453;50.852;7.102;2022-07-06T04:31:43;2.00;;;1.55;;
10801;SDS011;5453;50.852;7.102;2022-07-06T04:34:15;2.15;;;1.40;;
10801;SDS011;5453;50.852;7.102;2022-07-06T04:36:48;4.10;;;1.40;;
10801;SDS011;5453;50.852;7.102;2022-07-06T04:39:22;2.60;;;1.33;;
10801;SDS011;5453;50.852;7.102;2022-07-06T04:41:54;1.70;;;1.30;;
10801;SDS011;5453;50.852;7.102;2022-07-06T04:44:27;2.58;;;1.10;;
10801;SDS011;5453;50.852;7.102;2022-07-06T04:47:00;3.10;;;1.40;;
10801;SDS011;5453;50.852;7.102;2022-07-06T04:49:32;3.28;;;1.30;;
10801;SDS011;5453;50.852;7.102;2022-07-06T04:52:05;3.13;;;1.50;;
10801;SDS011;5453;50.852;7.102;2022-07-06T04:54:40;2.17;;;1.25;;
10801;SDS011;5453;50.852;7.102;2022-07-06T04:57:12;3.63;;;1.52;;
10801;SDS011;5453;50.852;7.102;2022-07-06T04:59:46;1.77;;;1.20;;
10801;SDS011;5453;50.852;7.102;2022-07-06T05:02:18;3.60;;;1.40;;
10801;SDS011;5453;50.852;7.102;2022-07-06T05:04:50;2.70;;;1.52;;
10801;SDS011;5453;50.852;7.102;2022-07-06T05:07:23;2.55;;;1.40;;
10801;SDS011;5453;50.852;7.102;2022-07-06T05:10:00;3.85;;;2.15;;
10801;SDS011;5453;50.852;7.102;2022-07-06T05:12:36;2.83;;;1.48;;
10801;SDS011;5453;50.852;7.102;2022-07-06T05:15:09;3.22;;;1.50;;
10801;SDS011;5453;50.852;7.102;2022-07-06T05:17:41;4.47;;;1.65;;
10801;SDS011;5453;50.852;7.102;2022-07-06T05:20:14;3.55;;;2.00;;
10801;SDS011;5453;50.852;7.102;2022-07-06T05:22:49;5.25;;;1.83;;
10801;SDS011;5453;50.852;7.102;2022-07-06T05:25:26;2.72;;;1.75;;
10801;SDS011;5453;50.852;7.102;2022-07-06T05:28:01;4.50;;;1.65;;
10801;SDS011;5453;50.852;7.102;2022-07-06T05:30:33;3.70;;;1.58;;
10801;SDS011;5453;50.852;7.102;2022-07-06T05:33:05;5.88;;;2.03;;
10801;SDS011;5453;50.852;7.102;2022-07-06T05:35:38;3.95;;;2.00;;
10801;SDS011;5453;50.852;7.102;2022-07-06T05:38:11;4.93;;;1.70;;
10801;SDS011;5453;50.852;7.102;2022-07-06T05:40:45;4.32;;;2.25;;
10801;SDS011;5453;50.852;7.102;2022-07-06T05:43:17;3.58;;;1.60;;
10801;SDS011;5453;50.852;7.102;2022-07-06T05:45:50;2.80;;;1.67;;
10801;SDS011;5453;50.852;7.102;2022-07-06T05:48:25;4.22;;;1.83;;
10801;SDS011;5453;50.852;7.102;2022-07-06T05:51:15;5.57;;;1.65;;
10801;SDS011;5453;50.852;7.102;2022-07-06T05:53:49;4.05;;;2.00;;
10801;SDS011;5453;50.852;7.102;2022-07-06T05:56:24;4.78;;;1.80;;
10801;SDS011;5453;50.852;7.102;2022-07-06T05:58:57;5.22;;;1.83;;
10801;SDS011;5453;50.852;7.102;2022-07-06T06:01:29;4.70;;;1.52;;
10801;SDS011;5453;50.852;7.102;2022-07-06T06:04:13;2.53;;;1.42;;
10801;SDS011;5453;50.852;7.102;2022-07-06T06:07:02;4.15;;;1.60;;
10801;SDS011;5453;50.852;7.102;2022-07-06T06:09:35;4.85;;;1.80;;
10801;SDS011;5453;50.852;7.102;2022-07-06T06:12:09;3.67;;;1.58;;
10801;SDS011;5453;50.852;7.102;2022-07-06T06:14:41;2.58;;;1.20;;
10801;SDS011;5453;50.852;7.102;2022-07-06T06:17:13;4.20;;;1.60;;
10801;SDS011;5453;50.852;7.102;2022-07-06T06:19:45;2.03;;;1.05;;
10801;SDS011;5453;50.852;7.102;2022-07-06T06:22:17;3.70;;;1.42;;
10801;SDS011;5453;50.852;7.102;2022-07-06T06:24:50;2.25;;;1.10;;
10801;SDS011;5453;50.852;7.102;2022-07-06T06:27:24;2.00;;;0.95;;
10801;SDS011;5453;50.852;7.102;2022-07-06T06:29:56;1.58;;;1.13;;
10801;SDS011;5453;50.852;7.102;2022-07-06T06:32:28;2.58;;;1.15;;
10801;SDS011;5453;50.852;7.102;2022-07-06T06:35:00;2.28;;;1.10;;
10801;SDS011;5453;50.852;7.102;2022-07-06T06:37:33;2.00;;;1.15;;
10801;SDS011;5453;50.852;7.102;2022-07-06T06:40:05;2.05;;;0.90;;
10801;SDS011;5453;50.852;7.102;2022-07-06T06:42:41;1.85;;;0.80;;
10801;SDS011;5453;50.852;7.102;2022-07-06T06:45:16;3.72;;;1.23;;
10801;SDS011;5453;50.852;7.102;2022-07-06T06:47:48;5.18;;;1.45;;
10801;SDS011;5453;50.852;7.102;2022-07-06T06:50:20;5.55;;;1.10;;
10801;SDS011;5453;50.852;7.102;2022-07-06T06:52:53;4.47;;;1.13;;
10801;SDS011;5453;50.852;7.102;2022-07-06T06:55:26;1.35;;;0.80;;
10801;SDS011;5453;50.852;7.102;2022-07-06T06:57:59;1.80;;;0.82;;
10801;SDS011;5453;50.852;7.102;2022-07-06T07:00:31;2.08;;;0.82;;
10801;SDS011;5453;50.852;7.102;2022-07-06T07:03:04;3.70;;;0.90;;
10801;SDS011;5453;50.852;7.102;2022-07-06T07:05:36;1.65;;;0.90;;
10801;SDS011;5453;50.852;7.102;2022-07-06T07:08:08;1.13;;;0.63;;
10801;SDS011;5453;50.852;7.102;2022-07-06T07:10:40;1.35;;;0.60;;
10801;SDS011;5453;50.852;7.102;2022-07-06T07:13:13;2.05;;;0.68;;
10801;SDS011;5453;50.852;7.102;2022-07-06T07:15:46;1.10;;;0.85;;
10801;SDS011;5453;50.852;7.102;2022-07-06T07:18:18;2.03;;;0.90;;
10801;SDS011;5453;50.852;7.102;2022-07-06T07:20:50;1.38;;;0.82;;
10801;SDS011;5453;50.852;7.102;2022-07-06T07:23:22;1.48;;;0.73;;
10801;SDS011;5453;50.852;7.102;2022-07-06T07:25:54;2.95;;;0.80;;
10801;SDS011;5453;50.852;7.102;2022-07-06T07:28:28;3.58;;;0.90;;
10801;SDS011;5453;50.852;7.102;2022-07-06T07:31:00;2.30;;;0.80;;
10801;SDS011;5453;50.852;7.102;2022-07-06T07:33:32;2.05;;;0.50;;
10801;SDS011;5453;50.852;7.102;2022-07-06T07:36:05;1.73;;;1.00;;
10801;SDS011;5453;50.852;7.102;2022-07-06T07:38:38;2.08;;;0.60;;
10801;SDS011;5453;50.852;7.102;2022-07-06T07:41:10;1.65;;;0.60;;
10801;SDS011;5453;50.852;7.102;2022-07-06T07:43:45;2.20;;;0.55;;
10801;SDS011;5453;50.852;7.102;2022-07-06T07:46:17;1.08;;;0.70;;
10801;SDS011;5453;50.852;7.102;2022-07-06T07:48:50;1.23;;;0.77;;
10801;SDS011;5453;50.852;7.102;2022-07-06T07:51:23;2.63;;;0.93;;
10801;SDS011;5453;50.852;7.102;2022-07-06T07:53:56;0.77;;;0.68;;
10801;SDS011;5453;50.852;7.102;2022-07-06T07:56:28;1.55;;;0.60;;
10801;SDS011;5453;50.852;7.102;2022-07-06T07:59:01;1.92;;;0.82;;
10801;SDS011;5453;50.852;7.102;2022-07-06T08:01:36;4.50;;;0.90;;
10801;SDS011;5453;50.852;7.102;2022-07-06T08:04:08;3.53;;;0.77;;
10801;SDS011;5453;50.852;7.102;2022-07-06T08:06:40;0.68;;;0.60;;
10801;SDS011;5453;50.852;7.102;2022-07-06T08:09:12;1.45;;;0.80;;
10801;SDS011;5453;50.852;7.102;2022-07-06T08:11:46;2.13;;;0.73;;
10801;SDS011;5453;50.852;7.102;2022-07-06T08:14:20;1.58;;;0.68;;
10801;SDS011;5453;50.852;7.102;2022-07-06T08:16:52;2.85;;;0.70;;
10801;SDS011;5453;50.852;7.102;2022-07-06T08:19:24;3.35;;;1.02;;
10801;SDS011;5453;50.852;7.102;2022-07-06T08:21:57;0.98;;;0.70;;
10801;SDS011;5453;50.852;7.102;2022-07-06T08:24:29;2.10;;;0.63;;
10801;SDS011;5453;50.852;7.102;2022-07-06T08:27:02;1.90;;;0.57;;
10801;SDS011;5453;50.852;7.102;2022-07-06T08:29:36;0.98;;;0.50;;
10801;SDS011;5453;50.852;7.102;2022-07-06T08:32:08;2.38;;;0.65;;
10801;SDS011;5453;50.852;7.102;2022-07-06T08:34:40;1.55;;;0.70;;
10801;SDS011;5453;50.852;7.102;2022-07-06T08:37:14;2.17;;;0.60;;
10801;SDS011;5453;50.852;7.102;2022-07-06T08:39:46;1.77;;;0.80;;
10801;SDS011;5453;50.852;7.102;2022-07-06T08:42:18;2.40;;;0.88;;
10801;SDS011;5453;50.852;7.102;2022-07-06T08:44:52;2.45;;;0.50;;
10801;SDS011;5453;50.852;7.102;2022-07-06T08:47:25;0.73;;;0.50;;
10801;SDS011;5453;50.852;7.102;2022-07-06T08:49:59;1.00;;;0.60;;
10801;SDS011;5453;50.852;7.102;2022-07-06T08:52:33;4.18;;;0.98;;
10801;SDS011;5453;50.852;7.102;2022-07-06T08:55:07;2.45;;;0.68;;
10801;SDS011;5453;50.852;7.102;2022-07-06T08:57:40;0.90;;;0.70;;
10801;SDS011;5453;50.852;7.102;2022-07-06T09:00:15;3.42;;;0.95;;
10801;SDS011;5453;50.852;7.102;2022-07-06T09:05:21;1.08;;;0.65;;
10801;SDS011;5453;50.852;7.102;2022-07-06T09:07:54;1.35;;;0.70;;
10801;SDS011;5453;50.852;7.102;2022-07-06T09:10:27;1.60;;;0.60;;
10801;SDS011;5453;50.852;7.102;2022-07-06T09:13:02;0.70;;;0.70;;
10801;SDS011;5453;50.852;7.102;2022-07-06T09:15:37;0.70;;;0.60;;
10801;SDS011;5453;50.852;7.102;2022-07-06T09:18:10;1.13;;;0.47;;
10801;SDS011;5453;50.852;7.102;2022-07-06T09:20:42;1.13;;;0.60;;
10801;SDS011;5453;50.852;7.102;2022-07-06T09:23:15;0.70;;;0.55;;
10801;SDS011;5453;50.852;7.102;2022-07-06T09:25:48;2.25;;;0.90;;
10801;SDS011;5453;50.852;7.102;2022-07-06T09:28:21;1.40;;;0.68;;
10801;SDS011;5453;50.852;7.102;2022-07-06T09:30:55;0.80;;;0.50;;
10801;SDS011;5453;50.852;7.102;2022-07-06T09:33:28;0.88;;;0.60;;
10801;SDS011;5453;50.852;7.102;2022-07-06T09:36:00;0.90;;;0.45;;
10801;SDS011;5453;50.852;7.102;2022-07-06T09:38:32;1.58;;;0.88;;
10801;SDS011;5453;50.852;7.102;2022-07-06T09:41:04;1.38;;;0.60;;
10801;SDS011;5453;50.852;7.102;2022-07-06T09:43:37;3.00;;;0.63;;
10801;SDS011;5453;50.852;7.102;2022-07-06T09:46:10;2.17;;;0.70;;
10801;SDS011;5453;50.852;7.102;2022-07-06T09:48:46;2.40;;;0.60;;
10801;SDS011;5453;50.852;7.102;2022-07-06T09:51:18;1.75;;;0.55;;
10801;SDS011;5453;50.852;7.102;2022-07-06T09:53:52;2.05;;;0.63;;
10801;SDS011;5453;50.852;7.102;2022-07-06T09:56:31;0.90;;;0.50;;
10801;SDS011;5453;50.852;7.102;2022-07-06T09:59:08;1.25;;;0.60;;
10801;SDS011;5453;50.852;7.102;2022-07-06T10:01:42;0.90;;;0.60;;
10801;SDS011;5453;50.852;7.102;2022-07-06T10:04:15;3.42;;;0.80;;
10801;SDS011;5453;50.852;7.102;2022-07-06T10:06:48;1.73;;;0.73;;
10801;SDS011;5453;50.852;7.102;2022-07-06T10:09:22;1.05;;;0.60;;
10801;SDS011;5453;50.852;7.102;2022-07-06T10:11:57;1.70;;;0.57;;
10801;SDS011;5453;50.852;7.102;2022-07-06T10:14:32;1.83;;;0.95;;
10801;SDS011;5453;50.852;7.102;2022-07-06T10:17:06;1.67;;;0.70;;
10801;SDS011;5453;50.852;7.102;2022-07-06T10:19:39;1.35;;;0.77;;
10801;SDS011;5453;50.852;7.102;2022-07-06T10:22:12;1.40;;;0.68;;
10801;SDS011;5453;50.852;7.102;2022-07-06T10:24:45;1.65;;;0.70;;
10801;SDS011;5453;50.852;7.102;2022-07-06T10:27:19;0.98;;;0.60;;
10801;SDS011;5453;50.852;7.102;2022-07-06T10:29:51;1.75;;;0.50;;
10801;SDS011;5453;50.852;7.102;2022-07-06T10:32:24;0.50;;;0.50;;
10801;SDS011;5453;50.852;7.102;2022-07-06T10:34:58;0.82;;;0.57;;
10801;SDS011;5453;50.852;7.102;2022-07-06T10:37:30;0.70;;;0.70;;
10801;SDS011;5453;50.852;7.102;2022-07-06T10:40:04;0.60;;;0.50;;
10801;SDS011;5453;50.852;7.102;2022-07-06T10:42:58;2.47;;;0.47;;
10801;SDS011;5453;50.852;7.102;2022-07-06T10:45:49;0.95;;;0.63;;
10801;SDS011;5453;50.852;7.102;2022-07-06T10:48:25;1.50;;;0.47;;
10801;SDS011;5453;50.852;7.102;2022-07-06T10:51:06;0.50;;;0.50;;
10801;SDS011;5453;50.852;7.102;2022-07-06T10:53:40;0.55;;;0.50;;
10801;SDS011;5453;50.852;7.102;2022-07-06T10:56:14;1.92;;;0.63;;
10801;SDS011;5453;50.852;7.102;2022-07-06T10:58:47;2.33;;;0.75;;
10801;SDS011;5453;50.852;7.102;2022-07-06T11:01:21;2.13;;;0.60;;
10801;SDS011;5453;50.852;7.102;2022-07-06T11:04:05;1.13;;;0.68;;
10801;SDS011;5453;50.852;7.102;2022-07-06T11:06:39;2.53;;;1.00;;
10801;SDS011;5453;50.852;7.102;2022-07-06T11:09:11;2.10;;;0.70;;
10801;SDS011;5453;50.852;7.102;2022-07-06T11:11:46;2.88;;;0.73;;
10801;SDS011;5453;50.852;7.102;2022-07-06T11:14:19;1.40;;;0.52;;
10801;SDS011;5453;50.852;7.102;2022-07-06T11:17:00;0.68;;;0.47;;
10801;SDS011;5453;50.852;7.102;2022-07-06T11:19:35;1.30;;;0.50;;
10801;SDS011;5453;50.852;7.102;2022-07-06T11:22:09;2.75;;;0.60;;
10801;SDS011;5453;50.852;7.102;2022-07-06T11:24:41;1.35;;;0.55;;
10801;SDS011;5453;50.852;7.102;2022-07-06T11:27:14;1.20;;;0.73;;
10801;SDS011;5453;50.852;7.102;2022-07-06T11:29:46;4.68;;;0.80;;
10801;SDS011;5453;50.852;7.102;2022-07-06T11:32:22;1.33;;;0.43;;
10801;SDS011;5453;50.852;7.102;2022-07-06T11:34:57;1.23;;;0.77;;
10801;SDS011;5453;50.852;7.102;2022-07-06T11:37:30;1.20;;;0.82;;
10801;SDS011;5453;50.852;7.102;2022-07-06T11:40:05;1.30;;;0.75;;
10801;SDS011;5453;50.852;7.102;2022-07-06T11:42:38;1.30;;;0.70;;
10801;SDS011;5453;50.852;7.102;2022-07-06T11:45:10;1.40;;;0.70;;
10801;SDS011;5453;50.852;7.102;2022-07-06T11:47:43;1.38;;;0.70;;
10801;SDS011;5453;50.852;7.102;2022-07-06T11:50:20;3.42;;;0.95;;
10801;SDS011;5453;50.852;7.102;2022-07-06T11:52:52;1.33;;;0.75;;
10801;SDS011;5453;50.852;7.102;2022-07-06T11:55:24;2.47;;;0.70;;
10801;SDS011;5453;50.852;7.102;2022-07-06T11:57:59;1.92;;;0.80;;
10801;SDS011;5453;50.852;7.102;2022-07-06T12:00:33;1.80;;;0.73;;
10801;SDS011;5453;50.852;7.102;2022-07-06T12:03:05;1.45;;;0.60;;
10801;SDS011;5453;50.852;7.102;2022-07-06T12:05:39;1.23;;;0.70;;
10801;SDS011;5453;50.852;7.102;2022-07-06T12:10:50;0.65;;;0.60;;
10801;SDS011;5453;50.852;7.102;2022-07-06T12:13:24;2.10;;;0.80;;
10801;SDS011;5453;50.852;7.102;2022-07-06T12:15:56;1.35;;;0.85;;
10801;SDS011;5453;50.852;7.102;2022-07-06T12:18:35;2.10;;;0.80;;
10801;SDS011;5453;50.852;7.102;2022-07-06T12:21:10;1.30;;;0.80;;
10801;SDS011;5453;50.852;7.102;2022-07-06T12:23:45;1.15;;;0.82;;
10801;SDS011;5453;50.852;7.102;2022-07-06T12:26:19;0.98;;;0.80;;
10801;SDS011;5453;50.852;7.102;2022-07-06T12:29:01;0.95;;;0.70;;
10801;SDS011;5453;50.852;7.102;2022-07-06T12:31:39;2.15;;;0.82;;
10801;SDS011;5453;50.852;7.102;2022-07-06T12:36:49;1.95;;;0.82;;
10801;SDS011;5453;50.852;7.102;2022-07-06T12:39:23;0.75;;;0.75;;
10801;SDS011;5453;50.852;7.102;2022-07-06T12:41:56;1.08;;;0.80;;
10801;SDS011;5453;50.852;7.102;2022-07-06T12:44:41;1.75;;;0.90;;
10801;SDS011;5453;50.852;7.102;2022-07-06T12:47:16;1.63;;;0.93;;
10801;SDS011;5453;50.852;7.102;2022-07-06T12:50:03;2.22;;;0.70;;
10801;SDS011;5453;50.852;7.102;2022-07-06T12:52:39;1.25;;;0.80;;
10801;SDS011;5453;50.852;7.102;2022-07-06T12:55:12;1.27;;;0.70;;
10801;SDS011;5453;50.852;7.102;2022-07-06T12:57:46;1.05;;;0.77;;
10801;SDS011;5453;50.852;7.102;2022-07-06T13:00:21;1.88;;;0.70;;
10801;SDS011;5453;50.852;7.102;2022-07-06T13:02:55;1.50;;;0.63;;
10801;SDS011;5453;50.852;7.102;2022-07-06T13:05:28;0.68;;;0.63;;
10801;SDS011;5453;50.852;7.102;2022-07-06T13:08:02;1.25;;;0.50;;
10801;SDS011;5453;50.852;7.102;2022-07-06T13:10:35;1.67;;;0.68;;
10801;SDS011;5453;50.852;7.102;2022-07-06T13:13:09;1.30;;;0.60;;
10801;SDS011;5453;50.852;7.102;2022-07-06T13:15:41;0.70;;;0.60;;
10801;SDS011;5453;50.852;7.102;2022-07-06T13:18:13;0.70;;;0.70;;
10801;SDS011;5453;50.852;7.102;2022-07-06T13:20:45;0.65;;;0.55;;
10801;SDS011;5453;50.852;7.102;2022-07-06T13:23:19;1.10;;;0.80;;
10801;SDS011;5453;50.852;7.102;2022-07-06T13:25:51;1.23;;;0.90;;
10801;SDS011;5453;50.852;7.102;2022-07-06T13:28:23;1.42;;;0.60;;
10801;SDS011;5453;50.852;7.102;2022-07-06T13:30:55;0.80;;;0.60;;
10801;SDS011;5453;50.852;7.102;2022-07-06T13:33:27;2.22;;;1.13;;
10801;SDS011;5453;50.852;7.102;2022-07-06T13:36:00;2.45;;;0.70;;
10801;SDS011;5453;50.852;7.102;2022-07-06T13:38:34;1.48;;;0.73;;
10801;SDS011;5453;50.852;7.102;2022-07-06T13:41:06;1.30;;;0.80;;
10801;SDS011;5453;50.852;7.102;2022-07-06T13:43:38;1.25;;;0.60;;
10801;SDS011;5453;50.852;7.102;2022-07-06T13:46:10;1.02;;;0.68;;
10801;SDS011;5453;50.852;7.102;2022-07-06T13:48:42;3.10;;;1.00;;
10801;SDS011;5453;50.852;7.102;2022-07-06T13:51:15;0.95;;;0.90;;
10801;SDS011;5453;50.852;7.102;2022-07-06T13:53:48;0.93;;;0.60;;
10801;SDS011;5453;50.852;7.102;2022-07-06T13:56:20;2.35;;;0.60;;
10801;SDS011;5453;50.852;7.102;2022-07-06T13:58:53;2.65;;;0.95;;
10801;SDS011;5453;50.852;7.102;2022-07-06T14:01:25;0.73;;;0.60;;
10801;SDS011;5453;50.852;7.102;2022-07-06T14:03:58;1.27;;;0.68;;
10801;SDS011;5453;50.852;7.102;2022-07-06T14:06:30;2.08;;;1.20;;
10801;SDS011;5453;50.852;7.102;2022-07-06T14:09:03;1.65;;;0.80;;
10801;SDS011;5453;50.852;7.102;2022-07-06T14:11:36;1.48;;;0.60;;
10801;SDS011;5453;50.852;7.102;2022-07-06T14:14:08;2.00;;;1.08;;
10801;SDS011;5453;50.852;7.102;2022-07-06T14:16:40;1.02;;;0.60;;
10801;SDS011;5453;50.852;7.102;2022-07-06T14:19:12;1.42;;;0.80;;
10801;SDS011;5453;50.852;7.102;2022-07-06T14:21:44;2.00;;;0.68;;
10801;SDS011;5453;50.852;7.102;2022-07-06T14:24:18;5.07;;;0.85;;
10801;SDS011;5453;50.852;7.102;2022-07-06T14:26:50;1.50;;;0.70;;
10801;SDS011;5453;50.852;7.102;2022-07-06T14:29:22;3.45;;;0.73;;
10801;SDS011;5453;50.852;7.102;2022-07-06T14:31:54;1.02;;;0.65;;
10801;SDS011;5453;50.852;7.102;2022-07-06T14:34:26;1.20;;;0.63;;
10801;SDS011;5453;50.852;7.102;2022-07-06T14:36:58;0.75;;;0.70;;
10801;SDS011;5453;50.852;7.102;2022-07-06T14:39:32;1.33;;;0.70;;
10801;SDS011;5453;50.852;7.102;2022-07-06T14:42:04;1.67;;;0.70;;
10801;SDS011;5453;50.852;7.102;2022-07-06T14:44:37;0.70;;;0.70;;
10801;SDS011;5453;50.852;7.102;2022-07-06T14:47:09;1.15;;;0.55;;
10801;SDS011;5453;50.852;7.102;2022-07-06T14:49:41;1.05;;;0.63;;
10801;SDS011;5453;50.852;7.102;2022-07-06T14:52:13;0.50;;;0.50;;
10801;SDS011;5453;50.852;7.102;2022-07-06T14:54:46;1.35;;;0.50;;
10801;SDS011;5453;50.852;7.102;2022-07-06T14:57:19;1.50;;;0.57;;
10801;SDS011;5453;50.852;7.102;2022-07-06T14:59:51;0.93;;;0.70;;
10801;SDS011;5453;50.852;7.102;2022-07-06T15:02:23;0.98;;;0.75;;
10801;SDS011;5453;50.852;7.102;2022-07-06T15:04:55;0.90;;;0.70;;
10801;SDS011;5453;50.852;7.102;2022-07-06T15:07:27;1.05;;;0.55;;
10801;SDS011;5453;50.852;7.102;2022-07-06T15:10:01;0.57;;;0.52;;
10801;SDS011;5453;50.852;7.102;2022-07-06T15:12:33;2.72;;;0.70;;
10801;SDS011;5453;50.852;7.102;2022-07-06T15:15:06;1.73;;;0.75;;
10801;SDS011;5453;50.852;7.102;2022-07-06T15:17:39;0.63;;;0.63;;
10801;SDS011;5453;50.852;7.102;2022-07-06T15:20:11;0.60;;;0.60;;
10801;SDS011;5453;50.852;7.102;2022-07-06T15:22:43;0.60;;;0.60;;
10801;SDS011;5453;50.852;7.102;2022-07-06T15:25:17;2.15;;;0.80;;
10801;SDS011;5453;50.852;7.102;2022-07-06T15:27:50;1.20;;;0.50;;
10801;SDS011;5453;50.852;7.102;2022-07-06T15:30:22;1.05;;;0.70;;
10801;SDS011;5453;50.852;7.102;2022-07-06T15:32:54;1.23;;;0.70;;
10801;SDS011;5453;50.852;7.102;2022-07-06T15:35:26;1.40;;;0.70;;
10801;SDS011;5453;50.852;7.102;2022-07-06T15:37:59;1.48;;;0.70;;
10801;SDS011;5453;50.852;7.102;2022-07-06T15:40:32;1.80;;;0.75;;
10801;SDS011;5453;50.852;7.102;2022-07-06T15:43:10;0.70;;;0.70;;
10801;SDS011;5453;50.852;7.102;2022-07-06T15:45:42;0.50;;;0.50;;
10801;SDS011;5453;50.852;7.102;2022-07-06T15:48:14;1.13;;;0.68;;